Time;durP1;ratioP1;P1;durP2;ratioP2;P2;SDS_P1;SDS_P2;PMS_P1;PMS_P2;Temp;Humidity;BMP_temperature;BMP_pressure;BME280_temperature;BME280_humidity;BME280_pressure;Samples;Min_cycle;Max_cycle;Signal;HPM_P1;HPM_P2
2021/12/03 00:00:43;;;;;;;4.28;2.53;;;30.80;99.90;;;;;;4971299;28;20211;-71
2021/12/03 00:03:11;;;;;;;11.07;3.22;;;31.10;99.90;;;;;;4964239;28;20187;-70
2021/12/03 00:05:39;;;;;;;5.07;2.97;;;31.10;99.90;;;;;;4973768;28;20183;-69
2021/12/03 00:08:07;;;;;;;5.83;2.57;;;31.30;99.90;;;;;;4973820;28;20238;-69
2021/12/03 00:10:36;;;;;;;3.80;2.90;;;31.60;99.90;;;;;;4972004;28;20211;-68
2021/12/03 00:13:05;;;;;;;4.82;2.90;;;32.00;99.90;;;;;;4955259;28;20192;-69
2021/12/03 00:15:34;;;;;;;4.70;2.63;;;31.90;99.90;;;;;;4954274;28;20211;-68
2021/12/03 00:18:01;;;;;;;4.78;2.70;;;32.10;99.90;;;;;;4964694;28;20183;-68
2021/12/03 00:20:32;;;;;;;10.60;3.00;;;32.40;99.90;;;;;;4973354;28;20179;-69
2021/12/03 00:23:00;;;;;;;3.72;3.03;;;32.20;99.90;;;;;;4971826;28;20195;-69
2021/12/03 00:25:27;;;;;;;2.92;2.58;;;32.20;99.90;;;;;;4972274;28;20570;-69
2021/12/03 00:27:55;;;;;;;4.68;3.00;;;32.20;99.90;;;;;;4967518;28;20218;-69
2021/12/03 00:30:22;;;;;;;6.70;3.05;;;32.50;99.90;;;;;;4952837;28;20612;-70
2021/12/03 00:32:50;;;;;;;5.80;3.20;;;32.20;99.90;;;;;;4963657;28;20188;-68
2021/12/03 00:35:18;;;;;;;4.72;2.95;;;31.20;99.90;;;;;;4955639;28;20579;-69
2021/12/03 00:37:51;;;;;;;5.30;3.05;;;31.00;99.90;;;;;;4953815;28;20183;-68
2021/12/03 00:40:24;;;;;;;5.07;2.37;;;31.10;99.90;;;;;;4954031;28;20666;-70
2021/12/03 00:42:52;;;;;;;5.40;2.47;;;31.00;99.90;;;;;;4963071;28;20183;-69
2021/12/03 00:45:20;;;;;;;4.43;2.00;;;30.70;99.90;;;;;;4963638;28;20251;-70
2021/12/03 00:47:49;;;;;;;3.70;1.93;;;30.40;99.90;;;;;;4953775;28;20194;-69
2021/12/03 00:50:21;;;;;;;8.00;1.90;;;30.40;99.90;;;;;;4968497;28;20664;-68
2021/12/03 00:52:49;;;;;;;4.97;2.40;;;30.50;99.90;;;;;;4954103;28;20550;-68
2021/12/03 00:55:17;;;;;;;3.90;1.90;;;30.70;99.90;;;;;;4953557;28;20665;-68
2021/12/03 00:57:45;;;;;;;5.67;1.70;;;30.50;99.90;;;;;;4953856;28;20180;-68
2021/12/03 01:00:23;;;;;;;3.77;1.70;;;30.30;99.90;;;;;;4952841;28;20184;-68
2021/12/03 01:02:55;;;;;;;5.10;1.87;;;30.60;99.90;;;;;;4955282;28;20676;-70
2021/12/03 01:05:24;;;;;;;5.70;1.70;;;30.30;99.90;;;;;;4953836;28;20236;-69
2021/12/03 01:07:51;;;;;;;19.17;12.23;;;30.20;99.90;;;;;;4970128;28;20183;-68
2021/12/03 01:10:19;;;;;;;7.60;1.90;;;30.50;99.90;;;;;;4965015;28;20197;-69
2021/12/03 01:12:46;;;;;;;8.73;2.20;;;30.00;99.90;;;;;;4957286;28;20223;-69
2021/12/03 01:15:16;;;;;;;8.13;1.90;;;29.80;99.90;;;;;;4956124;28;20242;-68
2021/12/03 01:17:44;;;;;;;5.33;1.97;;;29.50;99.90;;;;;;4961783;28;20176;-68
2021/12/03 01:20:13;;;;;;;6.17;2.00;;;30.00;99.90;;;;;;4953587;28;20187;-68
2021/12/03 01:22:42;;;;;;;5.80;2.30;;;30.40;99.90;;;;;;4953532;28;20543;-68
2021/12/03 01:25:11;;;;;;;9.33;2.60;;;29.80;99.90;;;;;;4953241;28;20645;-68
2021/12/03 01:27:39;;;;;;;11.60;3.77;;;29.80;99.90;;;;;;4968330;28;20202;-68
2021/12/03 01:30:10;;;;;;;12.87;3.13;;;29.70;99.90;;;;;;4972719;28;20203;-69
2021/12/03 01:32:38;;;;;;;9.53;2.87;;;29.80;99.90;;;;;;4972690;28;20171;-69
2021/12/03 01:35:07;;;;;;;8.20;3.07;;;29.70;99.90;;;;;;4967521;28;20241;-68
2021/12/03 01:37:34;;;;;;;11.13;3.43;;;30.20;99.90;;;;;;4953734;28;20618;-68
2021/12/03 01:40:02;;;;;;;14.07;3.60;;;30.40;99.90;;;;;;4953518;28;20196;-69
2021/12/03 01:42:29;;;;;;;11.23;3.43;;;30.30;99.90;;;;;;4953337;28;20222;-69
2021/12/03 01:44:57;;;;;;;10.47;3.33;;;30.40;99.90;;;;;;4953305;28;20180;-67
2021/12/03 01:47:25;;;;;;;11.87;3.40;;;30.00;99.90;;;;;;4953392;28;20176;-70
2021/12/03 01:49:53;;;;;;;9.13;3.90;;;30.20;99.90;;;;;;4955711;28;20254;-68
2021/12/03 01:52:20;;;;;;;8.53;3.77;;;30.00;99.90;;;;;;4956795;28;20184;-69
2021/12/03 01:54:48;;;;;;;9.30;3.33;;;30.10;99.90;;;;;;4963783;28;20183;-68
2021/12/03 01:57:17;;;;;;;11.53;4.07;;;30.20;99.90;;;;;;4959248;28;20188;-67
2021/12/03 01:59:44;;;;;;;11.57;3.73;;;30.30;99.90;;;;;;4957552;28;20798;-68
2021/12/03 02:02:13;;;;;;;13.43;4.17;;;30.40;99.90;;;;;;4967971;28;20187;-70
2021/12/03 02:04:40;;;;;;;13.30;4.03;;;30.70;99.90;;;;;;4957230;28;20180;-69
2021/12/03 02:07:07;;;;;;;11.03;3.83;;;30.10;99.90;;;;;;4956191;28;20255;-69
2021/12/03 02:09:35;;;;;;;9.83;4.50;;;29.90;99.90;;;;;;4956318;28;20227;-69
2021/12/03 02:12:03;;;;;;;12.13;3.77;;;29.90;99.90;;;;;;4956758;28;20195;-69
2021/12/03 02:14:30;;;;;;;13.50;4.40;;;30.10;99.90;;;;;;4956030;28;20232;-69
2021/12/03 02:16:58;;;;;;;11.27;4.10;;;30.20;99.90;;;;;;4962606;28;20666;-70
2021/12/03 02:19:26;;;;;;;13.33;4.63;;;29.70;99.90;;;;;;4962149;28;20638;-68
2021/12/03 02:21:53;;;;;;;13.00;4.23;;;29.70;99.90;;;;;;4973794;28;20187;-70
2021/12/03 02:24:21;;;;;;;11.53;4.77;;;29.90;99.90;;;;;;4974034;28;20194;-69
2021/12/03 02:26:50;;;;;;;8.07;4.30;;;30.00;99.90;;;;;;4975362;28;20814;-68
2021/12/03 02:29:17;;;;;;;11.77;4.63;;;29.90;99.90;;;;;;4973354;28;20221;-68
2021/12/03 02:31:45;;;;;;;12.57;4.60;;;30.10;99.90;;;;;;4975180;28;20239;-68
2021/12/03 02:34:13;;;;;;;11.23;4.40;;;29.80;99.90;;;;;;4969429;28;20250;-68
2021/12/03 02:36:40;;;;;;;12.53;4.53;;;29.70;99.90;;;;;;4960729;28;20525;-69
2021/12/03 02:39:08;;;;;;;11.47;4.37;;;29.40;99.90;;;;;;4956053;28;20239;-69
2021/12/03 02:41:36;;;;;;;16.43;5.23;;;29.50;99.90;;;;;;4957193;28;20184;-68
2021/12/03 02:44:04;;;;;;;10.07;4.53;;;29.50;99.90;;;;;;4972565;28;20195;-68
2021/12/03 02:46:32;;;;;;;11.80;4.77;;;29.90;99.90;;;;;;4975025;28;20234;-69
2021/12/03 02:49:00;;;;;;;12.27;5.17;;;29.70;99.90;;;;;;4974825;28;20223;-68
2021/12/03 02:51:27;;;;;;;10.67;4.43;;;30.10;99.90;;;;;;4974734;28;20183;-69
2021/12/03 02:53:55;;;;;;;11.07;4.50;;;29.90;99.90;;;;;;4971359;28;20677;-69
2021/12/03 02:56:23;;;;;;;11.47;4.50;;;29.30;99.90;;;;;;4954400;28;20199;-69
2021/12/03 02:58:50;;;;;;;9.43;4.47;;;29.90;99.90;;;;;;4969245;28;20230;-70
2021/12/03 03:01:18;;;;;;;13.03;5.23;;;30.20;99.90;;;;;;4974667;28;20191;-69
2021/12/03 03:03:46;;;;;;;11.80;5.67;;;30.20;99.90;;;;;;4981335;28;20251;-68
2021/12/03 03:06:14;;;;;;;14.27;5.77;;;30.20;99.90;;;;;;4975138;28;20192;-68
2021/12/03 03:08:43;;;;;;;12.13;5.20;;;30.30;99.90;;;;;;4969715;28;20247;-69
2021/12/03 03:11:11;;;;;;;8.33;4.40;;;30.30;99.90;;;;;;4960354;28;20267;-68
2021/12/03 03:13:39;;;;;;;13.77;5.80;;;30.40;99.90;;;;;;4957429;28;20234;-68
2021/12/03 03:16:07;;;;;;;12.60;5.73;;;29.90;99.90;;;;;;4954797;28;20562;-68
2021/12/03 03:18:36;;;;;;;11.73;7.13;;;30.00;99.90;;;;;;4955669;28;20238;-68
2021/12/03 03:21:06;;;;;;;14.47;6.20;;;29.80;99.90;;;;;;4963693;28;20190;-68
2021/12/03 03:23:37;;;;;;;8.80;5.53;;;29.70;99.90;;;;;;4954952;28;20222;-69
2021/12/03 03:26:06;;;;;;;12.17;6.13;;;29.90;99.90;;;;;;4955202;28;20235;-68
2021/12/03 03:28:35;;;;;;;14.90;6.63;;;29.50;99.90;;;;;;4955022;28;20216;-68
2021/12/03 03:31:03;;;;;;;14.93;6.03;;;29.30;99.90;;;;;;4954927;28;20625;-69
2021/12/03 03:33:32;;;;;;;15.30;7.60;;;29.40;99.90;;;;;;4954959;28;20598;-69
2021/12/03 03:36:00;;;;;;;10.37;5.20;;;29.50;99.90;;;;;;4954688;28;20568;-69
2021/12/03 03:38:28;;;;;;;14.50;6.33;;;29.10;99.90;;;;;;4954658;28;20587;-69
2021/12/03 03:40:57;;;;;;;19.97;7.33;;;28.50;99.90;;;;;;4967880;28;20278;-68
2021/12/03 03:43:24;;;;;;;15.87;7.07;;;28.90;99.90;;;;;;4973948;28;20186;-70
2021/12/03 03:45:55;;;;;;;15.70;6.80;;;29.30;99.90;;;;;;4973963;28;20539;-68
2021/12/03 03:48:24;;;;;;;13.53;6.60;;;29.20;99.90;;;;;;4966907;28;20232;-68
2021/12/03 03:50:52;;;;;;;12.47;6.57;;;29.20;99.90;;;;;;4956311;28;20183;-68
2021/12/03 03:53:20;;;;;;;12.10;6.50;;;29.30;99.90;;;;;;4954512;28;20271;-70
2021/12/03 03:55:47;;;;;;;15.07;7.30;;;28.80;99.90;;;;;;4954393;28;20184;-71
2021/12/03 03:58:15;;;;;;;16.80;8.03;;;28.40;99.90;;;;;;4971634;28;20179;-70
2021/12/03 04:00:45;;;;;;;18.97;7.57;;;28.50;99.90;;;;;;4973633;28;20546;-71
2021/12/03 04:03:14;;;;;;;16.70;7.80;;;28.20;99.90;;;;;;4973570;28;20219;-71
2021/12/03 04:05:42;;;;;;;21.93;8.50;;;27.10;99.90;;;;;;4973701;28;20207;-70
2021/12/03 04:08:11;;;;;;;19.73;9.00;;;26.30;99.90;;;;;;4969141;28;20214;-69
2021/12/03 04:10:39;;;;;;;18.13;8.53;;;26.10;99.90;;;;;;4973602;28;20195;-69
2021/12/03 04:13:07;;;;;;;22.47;9.73;;;26.00;99.90;;;;;;4972888;28;20548;-70
2021/12/03 04:15:37;;;;;;;21.73;9.90;;;25.70;99.90;;;;;;4972250;28;20199;-69
2021/12/03 04:18:04;;;;;;;19.83;9.50;;;25.30;99.90;;;;;;4970335;28;20198;-68
2021/12/03 04:20:32;;;;;;;22.80;9.13;;;24.90;99.90;;;;;;4961326;28;20219;-69
2021/12/03 04:22:59;;;;;;;25.90;10.43;;;24.70;99.90;;;;;;4954501;28;20184;-70
2021/12/03 04:25:27;;;;;;;23.83;9.47;;;24.40;99.90;;;;;;4954354;28;20246;-67
2021/12/03 04:27:54;;;;;;;19.07;8.77;;;24.20;99.90;;;;;;4954398;28;20183;-67
2021/12/03 04:30:29;;;;;;;23.43;11.30;;;24.20;99.90;;;;;;4956709;28;20191;-67
2021/12/03 04:32:58;;;;;;;45.37;16.23;;;24.00;99.90;;;;;;4954601;28;20201;-69
2021/12/03 04:35:26;;;;;;;22.80;10.03;;;23.80;99.90;;;;;;4954496;28;20222;-68
2021/12/03 04:37:54;;;;;;;29.97;9.80;;;23.80;99.90;;;;;;4954132;28;20180;-69
2021/12/03 04:40:22;;;;;;;24.37;9.23;;;23.50;99.90;;;;;;4965541;28;20592;-68
2021/12/03 04:42:50;;;;;;;36.23;11.07;;;23.40;99.90;;;;;;4970335;28;20183;-69
2021/12/03 04:45:21;;;;;;;28.87;10.73;;;23.10;99.90;;;;;;4973291;28;20608;-68
2021/12/03 04:47:50;;;;;;;26.90;9.77;;;22.80;99.90;;;;;;4972997;28;20667;-68
2021/12/03 04:50:20;;;;;;;26.30;10.27;;;22.70;99.90;;;;;;4962535;28;20188;-68
2021/12/03 04:52:48;;;;;;;40.37;12.27;;;22.60;99.90;;;;;;4967035;28;20551;-69
2021/12/03 04:55:16;;;;;;;19.40;8.13;;;22.50;99.90;;;;;;4972767;28;20235;-71
2021/12/03 04:57:44;;;;;;;19.60;8.57;;;22.50;99.90;;;;;;4959554;28;20195;-67
2021/12/03 05:00:17;;;;;;;19.10;8.07;;;22.40;99.90;;;;;;4954767;28;20199;-69
2021/12/03 05:02:46;;;;;;;28.00;8.97;;;22.30;99.90;;;;;;4953593;28;20180;-68
2021/12/03 05:05:13;;;;;;;21.60;8.50;;;22.40;99.90;;;;;;4953513;28;20180;-68
2021/12/03 05:10:09;;;;;;;21.00;8.80;;;22.30;99.90;;;;;;4958647;28;20294;-68
2021/12/03 05:12:37;;;;;;;22.50;8.47;;;22.40;99.90;;;;;;4958782;28;20618;-70
2021/12/03 05:15:05;;;;;;;23.47;8.60;;;22.40;99.90;;;;;;4970448;28;20223;-67
2021/12/03 05:17:32;;;;;;;23.60;8.80;;;22.40;99.90;;;;;;4960109;28;20662;-68
2021/12/03 05:20:00;;;;;;;21.30;8.53;;;22.70;99.90;;;;;;4958533;28;20317;-68
2021/12/03 05:22:27;;;;;;;22.97;8.50;;;23.20;99.90;;;;;;4962849;28;20193;-68
2021/12/03 05:24:55;;;;;;;21.50;8.97;;;23.10;99.90;;;;;;4953314;28;20198;-68
2021/12/03 05:27:22;;;;;;;19.37;8.70;;;22.80;99.90;;;;;;4964410;28;20201;-68
2021/12/03 05:29:50;;;;;;;23.03;8.60;;;22.70;99.90;;;;;;4973813;28;20334;-69
2021/12/03 05:32:19;;;;;;;23.47;9.43;;;22.70;99.90;;;;;;4976290;28;20177;-68
2021/12/03 05:34:47;;;;;;;24.47;9.17;;;22.90;99.90;;;;;;4968857;28;20197;-68
2021/12/03 05:37:14;;;;;;;23.20;8.60;;;23.20;99.90;;;;;;4962697;28;20201;-69
2021/12/03 05:39:42;;;;;;;22.57;9.23;;;23.30;99.90;;;;;;4976399;28;20176;-67
2021/12/03 05:42:09;;;;;;;25.63;9.13;;;23.30;99.90;;;;;;4976205;28;20182;-67
2021/12/03 05:44:37;;;;;;;21.43;9.20;;;23.00;99.90;;;;;;4976065;28;20598;-68
2021/12/03 05:47:04;;;;;;;40.57;10.90;;;22.70;99.90;;;;;;4972856;28;20724;-68
2021/12/03 05:49:32;;;;;;;21.60;9.40;;;22.50;99.90;;;;;;4976050;28;20223;-67
2021/12/03 05:52:00;;;;;;;25.83;9.63;;;22.40;99.90;;;;;;4971339;28;20191;-67
2021/12/03 05:54:28;;;;;;;20.93;9.40;;;22.30;99.90;;;;;;4959244;28;20291;-67
2021/12/03 05:56:55;;;;;;;22.10;9.30;;;22.30;99.90;;;;;;4960267;28;20194;-67
2021/12/03 05:59:23;;;;;;;24.57;8.63;;;22.30;99.90;;;;;;4973473;28;20257;-68
2021/12/03 06:01:50;;;;;;;21.47;9.70;;;22.10;99.90;;;;;;4971518;28;20180;-68
2021/12/03 06:04:18;;;;;;;25.67;8.97;;;22.30;99.90;;;;;;4956368;28;20281;-67
2021/12/03 06:06:45;;;;;;;20.77;9.13;;;22.50;99.90;;;;;;4959094;28;20613;-68
2021/12/03 06:09:13;;;;;;;21.77;8.63;;;22.50;99.90;;;;;;4956335;28;20270;-68
2021/12/03 06:11:40;;;;;;;17.13;8.63;;;22.50;99.90;;;;;;4956199;28;20188;-69
2021/12/03 06:14:08;;;;;;;21.07;8.60;;;22.50;99.90;;;;;;4957765;28;20231;-69
2021/12/03 06:16:35;;;;;;;22.73;8.53;;;22.50;99.90;;;;;;4973980;28;20191;-69
2021/12/03 06:19:02;;;;;;;22.57;8.57;;;22.40;99.90;;;;;;4961524;28;20194;-68
2021/12/03 06:21:30;;;;;;;23.47;8.23;;;22.40;99.90;;;;;;4970114;28;20183;-67
2021/12/03 06:23:57;;;;;;;17.33;7.30;;;22.40;99.90;;;;;;4973692;28;20557;-68
2021/12/03 06:26:25;;;;;;;26.23;8.83;;;22.50;99.90;;;;;;4972256;28;20226;-67
2021/12/03 06:28:52;;;;;;;22.73;8.47;;;22.60;99.90;;;;;;4972851;28;20202;-68
2021/12/03 06:31:20;;;;;;;21.40;8.80;;;22.20;99.90;;;;;;4974839;28;20191;-68
2021/12/03 06:33:47;;;;;;;25.73;8.87;;;22.00;99.90;;;;;;4974871;28;20198;-68
2021/12/03 06:36:14;;;;;;;21.90;9.07;;;22.20;99.90;;;;;;4964585;28;20555;-67
2021/12/03 06:38:42;;;;;;;18.90;8.40;;;22.30;99.90;;;;;;4962992;28;20224;-68
2021/12/03 06:41:09;;;;;;;22.90;8.90;;;22.30;99.90;;;;;;4955755;28;20183;-68
2021/12/03 06:43:37;;;;;;;17.27;7.27;;;22.20;99.90;;;;;;4955590;28;20192;-68
2021/12/03 06:46:05;;;;;;;18.20;8.87;;;22.30;99.90;;;;;;4955885;28;20176;-68
2021/12/03 06:48:32;;;;;;;20.03;7.83;;;22.40;99.90;;;;;;4965567;28;20211;-68
2021/12/03 06:51:00;;;;;;;17.63;7.93;;;22.20;99.90;;;;;;4975067;28;20177;-67
2021/12/03 06:53:38;;;;;;;21.40;8.47;;;22.10;99.90;;;;;;4974459;28;20257;-68
2021/12/03 06:56:08;;;;;;;19.67;8.73;;;22.10;99.90;;;;;;4974707;28;20182;-67
2021/12/03 06:58:36;;;;;;;17.07;8.00;;;21.90;99.90;;;;;;4959745;28;20640;-68
2021/12/03 07:01:03;;;;;;;14.17;7.83;;;21.70;99.90;;;;;;4957656;28;20314;-67
2021/12/03 07:03:31;;;;;;;17.57;8.17;;;21.90;99.90;;;;;;4954116;28;20660;-68
2021/12/03 07:05:58;;;;;;;16.90;7.93;;;21.90;99.90;;;;;;4957945;28;20200;-68
2021/12/03 07:08:25;;;;;;;17.60;8.40;;;22.00;99.90;;;;;;4967452;28;20199;-68
2021/12/03 07:10:53;;;;;;;19.97;8.47;;;22.00;99.90;;;;;;4972256;28;20198;-68
2021/12/03 07:13:20;;;;;;;17.13;7.80;;;21.90;99.90;;;;;;4961817;28;20214;-67
2021/12/03 07:15:47;;;;;;;20.13;8.00;;;21.70;99.90;;;;;;4970252;28;20667;-67
2021/12/03 07:18:15;;;;;;;17.47;7.80;;;21.80;99.90;;;;;;4958443;28;20191;-68
2021/12/03 07:20:42;;;;;;;17.93;8.77;;;21.80;99.90;;;;;;4962431;28;20269;-68
2021/12/03 07:23:09;;;;;;;20.33;8.80;;;21.90;99.90;;;;;;4970853;28;20209;-67
2021/12/03 07:25:37;;;;;;;15.10;7.23;;;21.80;99.90;;;;;;4970913;28;20187;-67
2021/12/03 07:28:07;;;;;;;18.63;7.80;;;21.70;99.90;;;;;;4970288;28;20211;-68
2021/12/03 07:30:34;;;;;;;16.03;7.70;;;21.60;99.90;;;;;;4972307;28;20225;-68
2021/12/03 07:33:02;;;;;;;22.63;7.07;;;21.60;99.90;;;;;;4973625;28;20755;-67
2021/12/03 07:35:29;;;;;;;22.87;10.60;;;21.60;99.90;;;;;;4973878;28;20564;-67
2021/12/03 07:37:56;;;;;;;16.57;7.97;;;21.70;99.90;;;;;;4970784;28;20187;-67
2021/12/03 07:40:24;;;;;;;15.70;7.63;;;21.70;99.90;;;;;;4973305;28;20746;-67
2021/12/03 07:42:51;;;;;;;19.23;7.47;;;21.50;99.90;;;;;;4969352;28;20172;-68
2021/12/03 07:45:19;;;;;;;23.57;7.23;;;21.50;99.90;;;;;;4954807;28;20200;-68
2021/12/03 07:47:46;;;;;;;14.63;7.17;;;21.40;99.90;;;;;;4952736;28;20214;-68
2021/12/03 07:50:15;;;;;;;16.27;6.97;;;21.50;99.90;;;;;;4970255;28;20246;-68
2021/12/03 07:52:42;;;;;;;17.83;7.43;;;21.60;99.90;;;;;;4973595;28;20192;-68
2021/12/03 07:55:10;;;;;;;24.23;8.17;;;21.50;99.90;;;;;;4973723;28;20182;-68
2021/12/03 07:57:38;;;;;;;24.80;7.70;;;21.50;99.90;;;;;;4972222;28;20220;-70
2021/12/03 08:00:08;;;;;;;26.50;7.97;;;21.40;99.90;;;;;;4957118;28;20207;-68
2021/12/03 08:02:35;;;;;;;17.63;7.77;;;21.40;99.90;;;;;;4972575;28;20255;-68
2021/12/03 08:05:03;;;;;;;16.57;7.60;;;21.50;99.90;;;;;;4973310;28;20239;-69
2021/12/03 08:07:30;;;;;;;13.47;6.33;;;21.30;99.90;;;;;;4973145;28;20176;-68
2021/12/03 08:09:58;;;;;;;15.20;7.17;;;21.10;99.90;;;;;;4978807;28;20278;-67
2021/12/03 08:12:25;;;;;;;22.03;8.03;;;21.00;99.90;;;;;;4969537;28;20180;-68
2021/12/03 08:14:52;;;;;;;23.03;7.93;;;21.10;99.90;;;;;;4976569;28;20699;-68
2021/12/03 08:17:20;;;;;;;21.73;8.10;;;21.10;99.90;;;;;;4976548;28;20188;-67
2021/12/03 08:19:47;;;;;;;20.43;7.73;;;21.00;99.90;;;;;;4966995;28;20207;-68
2021/12/03 08:22:15;;;;;;;20.30;7.33;;;20.90;99.90;;;;;;4966875;28;20534;-68
2021/12/03 08:24:42;;;;;;;23.13;8.63;;;20.90;99.90;;;;;;4957101;28;20654;-66
2021/12/03 08:27:09;;;;;;;18.93;7.43;;;20.90;99.90;;;;;;4964817;28;20207;-68
2021/12/03 08:29:37;;;;;;;18.50;8.30;;;20.70;99.90;;;;;;4969652;28;20810;-68
2021/12/03 08:32:05;;;;;;;18.37;7.23;;;20.80;99.90;;;;;;4967312;28;20655;-68
2021/12/03 08:34:32;;;;;;;15.93;7.77;;;20.70;99.90;;;;;;4965721;28;20253;-68
2021/12/03 08:36:59;;;;;;;19.07;7.87;;;20.50;99.90;;;;;;4973316;28;20234;-69
2021/12/03 08:39:28;;;;;;;17.30;6.93;;;20.40;99.90;;;;;;4973489;28;20191;-71
2021/12/03 08:41:56;;;;;;;16.40;6.50;;;20.30;99.90;;;;;;4939152;28;20255;-68
2021/12/03 08:44:23;;;;;;;16.87;7.67;;;20.30;99.90;;;;;;4955212;28;20224;-68
2021/12/03 08:46:58;;;;;;;18.37;6.87;;;20.40;99.90;;;;;;4955196;28;20218;-68
2021/12/03 08:49:29;;;;;;;18.67;7.93;;;20.10;99.90;;;;;;4955554;28;20624;-68
2021/12/03 08:54:49;;;;;;;19.50;7.40;;;20.10;99.90;;;;;;4974501;28;20233;-68
2021/12/03 08:57:31;;;;;;;16.63;6.93;;;20.10;99.90;;;;;;4974563;28;20720;-68
2021/12/03 09:00:08;;;;;;;19.03;6.90;;;20.00;99.90;;;;;;4972934;28;20219;-68
2021/12/03 09:02:36;;;;;;;22.07;7.73;;;20.20;99.90;;;;;;4956453;28;20176;-72
2021/12/03 09:05:04;;;;;;;17.93;7.17;;;20.10;99.90;;;;;;4974125;28;20218;-69
2021/12/03 09:07:31;;;;;;;25.07;8.03;;;20.10;99.90;;;;;;4974364;28;20185;-68
2021/12/03 09:09:59;;;;;;;24.87;7.23;;;20.10;99.90;;;;;;4958267;28;20228;-69
2021/12/03 09:12:27;;;;;;;20.87;7.63;;;20.10;99.90;;;;;;4965205;28;20274;-69
2021/12/03 09:15:00;;;;;;;23.93;8.00;;;20.00;99.90;;;;;;4963512;28;20262;-67
2021/12/03 09:22:55;;;;;;;25.20;8.07;;;19.90;99.90;;;;;;4955194;28;20188;-68
2021/12/03 09:25:31;;;;;;;18.70;9.00;;;19.80;99.90;;;;;;4954995;28;20641;-68
2021/12/03 09:28:02;;;;;;;22.27;9.40;;;19.80;99.90;;;;;;4958954;28;20187;-69
2021/12/03 09:30:36;;;;;;;22.83;9.27;;;19.90;99.90;;;;;;4964062;28;20218;-68
2021/12/03 09:33:11;;;;;;;27.83;9.43;;;20.00;99.90;;;;;;4958043;28;20183;-69
2021/12/03 09:35:44;;;;;;;19.27;9.33;;;19.80;99.90;;;;;;4954758;28;20227;-68
2021/12/03 09:38:12;;;;;;;21.07;8.33;;;19.90;99.90;;;;;;4973661;28;20215;-69
2021/12/03 09:40:42;;;;;;;31.47;10.10;;;19.80;99.90;;;;;;4963115;28;20729;-68
2021/12/03 09:43:10;;;;;;;19.33;8.87;;;19.70;99.90;;;;;;4954726;28;20231;-68
2021/12/03 09:45:39;;;;;;;19.37;8.97;;;19.70;99.90;;;;;;4957020;28;20677;-69
2021/12/03 09:48:18;;;;;;;22.60;8.97;;;19.80;99.90;;;;;;4955932;28;20180;-70
2021/12/03 09:50:45;;;;;;;23.17;9.33;;;19.70;99.90;;;;;;4965573;28;20233;-69
2021/12/03 09:53:30;;;;;;;20.63;8.80;;;19.70;99.90;;;;;;4973920;28;20185;-69
2021/12/03 09:55:57;;;;;;;24.67;10.23;;;19.70;99.90;;;;;;4973890;28;20238;-68
2021/12/03 09:59:25;;;;;;;27.53;10.73;;;19.60;99.90;;;;;;4974072;28;20187;-68
2021/12/03 10:02:14;;;;;;;20.47;10.30;;;19.60;99.90;;;;;;4957673;28;20554;-68
2021/12/03 10:15:33;;;;;;;22.13;12.77;;;19.50;99.90;;;;;;4957714;29;20249;-68
2021/12/03 10:18:09;;;;;;;23.40;12.37;;;19.50;99.90;;;;;;4957317;28;20198;-68
2021/12/03 10:20:50;;;;;;;27.93;14.40;;;19.50;99.90;;;;;;4959497;28;20204;-68
2021/12/03 10:35:03;;;;;;;23.63;14.20;;;19.70;99.90;;;;;;4976956;28;20179;-69
2021/12/03 10:39:50;;;;;;;25.80;15.13;;;19.60;99.90;;;;;;4974998;28;20191;-68
2021/12/03 10:48:01;;;;;;;29.43;16.00;;;19.90;99.90;;;;;;4975453;28;20592;-68
2021/12/03 10:53:20;;;;;;;24.87;14.30;;;19.90;99.90;;;;;;4976795;28;20591;-68
2021/12/03 10:56:16;;;;;;;25.07;15.33;;;19.90;99.90;;;;;;4967390;28;20269;-68
2021/12/03 11:16:43;;;;;;;24.77;14.90;;;20.00;99.90;;;;;;4976037;28;20236;-68
2021/12/03 11:39:59;;;;;;;26.20;14.43;;;19.90;99.90;;;;;;4956571;28;20176;-67
2021/12/03 14:06:39;;;;;;;20.47;7.10;;;19.50;99.90;;;;;;4958360;28;20184;-69
2021/12/03 14:09:39;;;;;;;21.13;7.60;;;19.60;99.90;;;;;;4958102;28;20224;-69
2021/12/03 14:37:18;;;;;;;21.67;8.47;;;19.70;99.90;;;;;;4965445;28;20241;-67
2021/12/03 14:40:11;;;;;;;17.27;7.70;;;19.70;99.90;;;;;;4957827;28;20216;-67
2021/12/03 14:45:44;;;;;;;15.37;7.33;;;19.70;99.90;;;;;;4957731;28;20169;-67
2021/12/03 14:51:09;;;;;;;19.53;7.63;;;19.60;99.90;;;;;;4957575;28;20191;-69
2021/12/03 14:56:22;;;;;;;15.83;6.97;;;19.50;99.90;;;;;;4957458;28;20656;-68
2021/12/03 14:59:19;;;;;;;11.83;5.90;;;19.50;99.90;;;;;;4957078;28;20203;-68
2021/12/03 15:07:11;;;;;;;12.20;3.67;;;19.30;99.90;;;;;;4957291;28;20214;-68
2021/12/03 15:09:44;;;;;;;9.87;3.10;;;19.40;99.90;;;;;;4957680;28;20215;-69
2021/12/03 15:24:15;;;;;;;9.20;3.03;;;19.20;99.90;;;;;;4976043;28;20179;-67
2021/12/03 15:26:02;;;;;;;10.87;3.63;;;19.20;99.90;;;;;;4976495;28;20196;-67
2021/12/03 15:32:06;;;;;;;11.07;3.37;;;19.20;99.90;;;;;;4956726;29;20199;-67
2021/12/03 15:39:22;;;;;;;12.37;3.10;;;19.10;99.90;;;;;;4956604;28;20181;-67
2021/12/03 15:53:56;;;;;;;11.80;3.47;;;19.10;99.90;;;;;;4975951;28;20191;-68
2021/12/03 16:08:52;;;;;;;9.67;3.90;;;19.20;99.90;;;;;;4974580;28;20207;-68
2021/12/03 16:11:36;;;;;;;13.20;4.30;;;19.20;99.90;;;;;;4974967;28;20188;-68
2021/12/03 16:14:39;;;;;;;13.43;4.20;;;19.20;99.90;;;;;;4974821;28;20232;-66
2021/12/03 16:17:16;;;;;;;18.47;4.93;;;19.20;99.90;;;;;;4961744;28;20556;-68
2021/12/03 16:20:07;;;;;;;12.57;4.33;;;19.20;99.90;;;;;;4955840;28;20604;-67
2021/12/03 16:22:45;;;;;;;17.83;4.63;;;19.20;99.90;;;;;;4956854;28;20219;-68
2021/12/03 16:50:26;;;;;;;14.10;4.60;;;19.00;99.90;;;;;;4955388;28;20243;-68
2021/12/03 16:52:11;;;;;;;13.37;4.90;;;19.10;99.90;;;;;;4969351;28;20676;-68
2021/12/03 16:54:50;;;;;;;10.80;4.27;;;19.10;99.90;;;;;;4955805;28;20195;-68
2021/12/03 16:57:18;;;;;;;17.73;5.23;;;19.00;99.90;;;;;;4955280;28;20587;-68
2021/12/03 16:59:47;;;;;;;12.27;4.60;;;19.00;99.90;;;;;;4955262;28;20223;-67
2021/12/03 17:02:20;;;;;;;14.03;4.60;;;19.10;99.90;;;;;;4955333;28;20192;-68
2021/12/03 17:16:05;;;;;;;17.80;5.53;;;19.00;99.90;;;;;;4974168;28;20238;-68
2021/12/03 17:48:54;;;;;;;18.10;6.67;;;18.90;99.90;;;;;;4958457;28;20189;-68
2021/12/03 17:56:43;;;;;;;19.27;5.97;;;18.80;99.90;;;;;;4977771;28;20202;-69
2021/12/03 18:04:38;;;;;;;25.30;6.93;;;18.80;99.90;;;;;;4972418;28;20653;-68
2021/12/03 18:07:13;;;;;;;19.53;6.50;;;18.80;99.90;;;;;;4977480;28;20178;-68
2021/12/03 18:09:54;;;;;;;19.83;6.67;;;18.80;99.90;;;;;;4977307;28;20253;-67
2021/12/03 18:56:06;;;;;;;25.67;7.20;;;18.80;99.90;;;;;;4957067;28;20239;-67
2021/12/03 18:58:34;;;;;;;20.47;6.80;;;18.80;99.90;;;;;;4957290;28;20172;-67
2021/12/03 19:01:01;;;;;;;22.70;7.27;;;18.80;99.90;;;;;;4957306;28;20185;-67
2021/12/03 19:06:16;;;;;;;16.70;6.33;;;18.80;99.90;;;;;;4975913;28;20180;-69
2021/12/03 19:13:48;;;;;;;15.57;6.47;;;18.80;99.90;;;;;;4966158;28;20214;-68
2021/12/03 19:16:17;;;;;;;14.97;6.83;;;18.80;99.90;;;;;;4975988;28;20181;-68
2021/12/03 19:18:48;;;;;;;17.87;6.43;;;18.90;99.90;;;;;;4976294;28;20183;-68
2021/12/03 19:21:22;;;;;;;18.87;6.40;;;18.90;99.90;;;;;;4974799;28;20190;-68
2021/12/03 19:23:51;;;;;;;21.33;6.90;;;18.90;99.90;;;;;;4966048;28;20222;-68
2021/12/03 19:26:21;;;;;;;14.83;5.90;;;19.00;99.90;;;;;;4956985;28;20184;-68
2021/12/03 19:28:49;;;;;;;21.57;6.57;;;19.00;99.90;;;;;;4956473;28;20220;-68
2021/12/03 19:31:20;;;;;;;16.00;6.77;;;18.90;99.90;;;;;;4956550;28;20188;-68
2021/12/03 19:33:47;;;;;;;22.57;6.80;;;19.00;99.90;;;;;;4965299;28;20183;-69
2021/12/03 19:36:26;;;;;;;20.10;7.23;;;19.00;99.90;;;;;;4975726;28;20225;-68
2021/12/03 19:38:56;;;;;;;17.37;6.87;;;19.00;99.90;;;;;;4958087;28;20191;-69
2021/12/03 19:41:34;;;;;;;14.77;6.17;;;18.90;99.90;;;;;;4956377;28;20255;-68
2021/12/03 19:44:03;;;;;;;11.83;6.67;;;18.90;99.90;;;;;;4968390;28;20190;-68
2021/12/03 19:46:34;;;;;;;17.63;7.63;;;18.90;99.90;;;;;;4975838;28;20206;-68
2021/12/03 19:49:14;;;;;;;15.43;6.73;;;18.90;99.90;;;;;;4975701;28;20227;-67
2021/12/03 19:51:47;;;;;;;15.03;7.13;;;18.90;99.90;;;;;;4974268;28;20551;-68
2021/12/03 19:54:15;;;;;;;18.03;6.83;;;18.90;99.90;;;;;;4955991;28;20211;-67
2021/12/03 19:56:44;;;;;;;15.43;7.30;;;19.00;99.90;;;;;;4956149;28;20270;-68
2021/12/03 19:59:12;;;;;;;14.47;7.30;;;19.00;99.90;;;;;;4956174;28;20183;-67
2021/12/03 20:01:40;;;;;;;14.27;7.33;;;19.00;99.90;;;;;;4955885;28;20184;-69
2021/12/03 20:04:09;;;;;;;13.13;6.60;;;19.10;99.90;;;;;;4972483;28;20192;-67
2021/12/03 20:06:47;;;;;;;10.10;6.13;;;19.10;99.90;;;;;;5090668;27;20881;-68
2021/12/03 20:09:27;;;;;;;15.43;6.67;;;19.20;99.90;;;;;;5090815;28;20183;-67